Time;durP1;ratioP1;P1;durP2;ratioP2;P2;SDS_P1;SDS_P2;PMS_P1;PMS_P2;Temp;Humidity;BMP_temperature;BMP_pressure;BME280_temperature;BME280_humidity;BME280_pressure;Samples;Min_cycle;Max_cycle;Signal;HPM_P1;HPM_P2
2022/08/22 00:00:53;;;;;;;4.28;1.05;;;23.50;63.40;;;;;;5091018;28;20066;-65
2022/08/22 00:03:24;;;;;;;3.83;0.80;;;23.60;63.50;;;;;;5091377;28;20177;-66
2022/08/22 00:06:10;;;;;;;4.35;1.40;;;23.50;63.50;;;;;;5074053;28;20048;-66
2022/08/22 00:08:54;;;;;;;2.60;1.00;;;23.50;63.60;;;;;;5109146;27;20375;-65
2022/08/22 00:11:35;;;;;;;4.88;1.30;;;23.50;63.60;;;;;;5092590;28;20120;-66
2022/08/22 00:14:09;;;;;;;2.80;1.48;;;23.50;63.60;;;;;;5090900;28;20093;-66
2022/08/22 00:16:42;;;;;;;3.80;1.17;;;23.50;63.60;;;;;;5091047;28;20079;-66
2022/08/22 00:19:17;;;;;;;3.25;1.00;;;23.50;63.60;;;;;;5092849;28;20048;-66
2022/08/22 00:22:18;;;;;;;3.42;1.27;;;23.50;63.70;;;;;;5090721;28;20040;-66
2022/08/22 00:25:02;;;;;;;3.70;1.15;;;23.50;63.70;;;;;;5111260;27;20150;-65
2022/08/22 00:27:36;;;;;;;2.65;1.35;;;23.50;63.70;;;;;;5091342;28;20097;-66
2022/08/22 00:30:13;;;;;;;2.47;0.98;;;23.50;63.70;;;;;;5092198;28;20562;-66
2022/08/22 00:32:46;;;;;;;1.80;0.90;;;23.50;63.70;;;;;;5091190;28;20428;-66
2022/08/22 00:35:37;;;;;;;2.20;1.05;;;23.50;63.80;;;;;;5107771;28;20114;-65
2022/08/22 00:38:12;;;;;;;3.10;1.17;;;23.50;63.80;;;;;;5091272;28;20078;-66
2022/08/22 00:40:56;;;;;;;4.32;0.82;;;23.50;63.80;;;;;;5092037;28;20083;-66
2022/08/22 00:43:40;;;;;;;3.78;1.27;;;23.50;63.80;;;;;;5092225;28;20093;-66
2022/08/22 00:46:14;;;;;;;2.25;0.90;;;23.50;63.90;;;;;;5092296;28;20040;-65
2022/08/22 00:49:04;;;;;;;3.03;1.30;;;23.50;64.00;;;;;;5091096;28;20048;-66
2022/08/22 00:51:32;;;;;;;2.92;1.13;;;23.50;64.00;;;;;;5092172;28;20048;-66
2022/08/22 00:54:27;;;;;;;2.95;1.02;;;23.50;64.00;;;;;;5092169;28;20047;-66
2022/08/22 00:57:04;;;;;;;3.20;1.30;;;23.50;64.00;;;;;;5090418;28;20052;-66
2022/08/22 00:59:38;;;;;;;2.10;0.98;;;23.40;64.00;;;;;;5090596;28;20127;-65
2022/08/22 01:02:26;;;;;;;3.20;1.15;;;23.50;64.00;;;;;;5090549;28;20042;-64
2022/08/22 01:05:09;;;;;;;2.53;1.33;;;23.40;64.00;;;;;;5091098;28;20040;-64
2022/08/22 01:08:08;;;;;;;3.92;1.45;;;23.40;64.00;;;;;;5090841;28;20071;-64
2022/08/22 01:10:36;;;;;;;2.95;1.00;;;23.40;64.00;;;;;;5076226;28;20109;-65
2022/08/22 01:13:21;;;;;;;3.83;1.20;;;23.40;64.00;;;;;;5090744;28;20069;-65
2022/08/22 01:15:47;;;;;;;4.05;1.10;;;23.40;64.00;;;;;;5092239;28;20036;-65
2022/08/22 01:18:31;;;;;;;1.98;0.88;;;23.40;64.10;;;;;;5106869;28;20040;-65
2022/08/22 01:21:03;;;;;;;2.47;1.10;;;23.40;64.00;;;;;;5092189;28;20047;-65
2022/08/22 01:23:52;;;;;;;2.22;1.10;;;23.40;64.10;;;;;;5090705;28;20147;-65
2022/08/22 01:26:40;;;;;;;1.90;0.93;;;23.40;64.10;;;;;;5090241;28;20048;-65
2022/08/22 01:29:20;;;;;;;2.95;1.08;;;23.40;64.10;;;;;;5092246;28;20165;-65
2022/08/22 01:32:23;;;;;;;2.60;0.75;;;23.40;64.10;;;;;;5089888;28;20044;-66
2022/08/22 01:35:07;;;;;;;2.55;0.90;;;23.40;64.10;;;;;;5090463;28;20051;-64
2022/08/22 01:37:50;;;;;;;3.28;0.95;;;23.40;64.20;;;;;;5090629;28;20052;-65
2022/08/22 01:40:34;;;;;;;4.93;1.00;;;23.40;64.20;;;;;;5090682;28;20048;-65
2022/08/22 01:43:42;;;;;;;2.47;1.13;;;23.40;64.20;;;;;;5091894;28;20044;-65
2022/08/22 01:46:07;;;;;;;;;;;23.40;64.30;;;;;;5079016;28;20068;-65
2022/08/22 01:48:51;;;;;;;2.10;1.00;;;23.40;64.20;;;;;;5091301;28;20081;-66
2022/08/22 01:51:35;;;;;;;2.17;1.13;;;23.40;64.30;;;;;;5089796;28;20157;-66
2022/08/22 01:54:13;;;;;;;3.13;0.80;;;23.40;64.30;;;;;;5090226;28;20403;-66
2022/08/22 01:56:42;;;;;;;;;;;23.40;64.30;;;;;;5075183;28;20052;-65
2022/08/22 01:59:13;;;;;;;3.45;0.90;;;23.40;64.30;;;;;;5091231;28;20363;-66
2022/08/22 02:01:43;;;;;;;2.55;1.00;;;23.30;64.30;;;;;;5093658;28;20046;-66
2022/08/22 02:04:09;;;;;;;1.85;0.73;;;23.30;64.40;;;;;;5093019;28;20048;-66
2022/08/22 02:07:18;;;;;;;2.72;1.10;;;23.40;64.40;;;;;;5093618;28;20048;-66
2022/08/22 02:09:46;;;;;;;3.35;1.15;;;23.40;64.40;;;;;;5032228;28;20485;-66
2022/08/22 02:12:21;;;;;;;1.85;0.93;;;23.40;64.40;;;;;;5083243;28;20071;-66
2022/08/22 02:15:24;;;;;;;2.85;0.90;;;23.40;64.40;;;;;;5094402;28;20110;-65
2022/08/22 02:18:05;;;;;;;3.90;1.23;;;23.30;64.30;;;;;;5069290;28;20056;-65
2022/08/22 02:21:01;;;;;;;3.38;1.08;;;23.40;64.40;;;;;;5093637;28;20044;-65
2022/08/22 02:23:51;;;;;;;2.15;1.00;;;23.30;64.40;;;;;;5094670;28;20051;-66
2022/08/22 02:26:22;;;;;;;1.75;1.00;;;23.30;64.40;;;;;;5093639;28;20115;-66
2022/08/22 02:29:07;;;;;;;2.53;1.00;;;23.30;64.40;;;;;;5075836;28;20515;-65
2022/08/22 02:31:56;;;;;;;2.15;1.10;;;23.30;64.40;;;;;;5092756;28;20056;-65
2022/08/22 02:34:40;;;;;;;2.13;1.00;;;23.30;64.40;;;;;;5077901;28;20043;-66
2022/08/22 02:37:16;;;;;;;2.08;0.90;;;23.30;64.50;;;;;;5093336;28;20044;-65
2022/08/22 02:39:50;;;;;;;2.83;0.80;;;23.30;64.50;;;;;;5077378;28;20040;-66
2022/08/22 02:42:37;;;;;;;2.97;1.17;;;23.30;64.50;;;;;;5092216;28;20426;-66
2022/08/22 02:45:49;;;;;;;1.88;0.82;;;23.30;64.50;;;;;;5094646;28;20048;-66
2022/08/22 02:48:39;;;;;;;2.63;1.02;;;23.30;64.40;;;;;;5014289;28;20054;-66
2022/08/22 02:51:16;;;;;;;2.13;0.98;;;23.30;64.50;;;;;;5017306;28;20049;-66
2022/08/22 02:54:06;;;;;;;3.60;1.00;;;23.30;64.50;;;;;;5073731;28;20087;-65
2022/08/22 02:56:36;;;;;;;1.83;0.93;;;23.30;64.50;;;;;;5075612;28;20048;-66
2022/08/22 02:59:44;;;;;;;2.35;0.88;;;23.30;64.50;;;;;;5093190;28;20109;-65
2022/08/22 03:02:38;;;;;;;2.28;1.10;;;23.30;64.50;;;;;;5124321;27;20044;-66
2022/08/22 03:05:27;;;;;;;2.20;1.05;;;23.30;64.50;;;;;;5092707;28;20059;-66
2022/08/22 03:08:01;;;;;;;2.22;0.85;;;23.30;64.50;;;;;;5092738;28;20059;-66
2022/08/22 03:10:29;;;;;;;3.20;1.00;;;23.30;64.60;;;;;;5075064;28;20115;-66
2022/08/22 03:13:10;;;;;;;2.05;0.90;;;23.30;64.60;;;;;;5058958;28;20499;-66
2022/08/22 03:15:44;;;;;;;1.80;1.05;;;23.30;64.50;;;;;;5075635;28;20044;-66
2022/08/22 03:18:26;;;;;;;2.05;0.90;;;23.30;64.60;;;;;;5092734;28;20067;-66
2022/08/22 03:21:09;;;;;;;1.98;1.10;;;23.30;64.60;;;;;;5092720;28;20047;-65
2022/08/22 03:23:41;;;;;;;2.53;0.80;;;23.30;64.60;;;;;;5091337;28;20048;-65
2022/08/22 03:26:10;;;;;;;1.23;0.80;;;23.30;64.60;;;;;;5076118;28;20490;-66
2022/08/22 03:28:44;;;;;;;2.85;0.95;;;23.30;64.60;;;;;;5093303;28;20086;-66
2022/08/22 03:31:14;;;;;;;4.03;1.20;;;23.30;64.60;;;;;;5092324;28;20105;-66
2022/08/22 03:33:40;;;;;;;2.40;0.98;;;23.30;64.60;;;;;;5093547;28;20067;-65
2022/08/22 03:36:25;;;;;;;2.40;1.08;;;23.30;64.60;;;;;;5093460;28;20934;-65
2022/08/22 03:38:53;;;;;;;2.10;0.80;;;23.30;64.60;;;;;;5092424;28;20048;-65
2022/08/22 03:41:55;;;;;;;1.67;0.70;;;23.20;64.60;;;;;;5092130;28;20479;-66
2022/08/22 03:44:39;;;;;;;1.58;0.90;;;23.20;64.50;;;;;;5092215;28;20506;-66
2022/08/22 03:47:30;;;;;;;2.88;1.10;;;23.30;64.60;;;;;;5093431;28;20086;-66
2022/08/22 03:50:22;;;;;;;2.00;0.82;;;23.20;64.60;;;;;;5092094;28;20147;-66
2022/08/22 03:53:11;;;;;;;2.10;1.00;;;23.20;64.60;;;;;;5091165;28;20101;-66
2022/08/22 03:55:45;;;;;;;2.08;0.90;;;23.20;64.60;;;;;;5094307;28;20479;-66
2022/08/22 03:58:32;;;;;;;2.30;0.90;;;23.20;64.70;;;;;;5091101;28;20148;-66
2022/08/22 04:01:36;;;;;;;2.30;1.00;;;23.20;64.60;;;;;;5108685;28;20047;-65
2022/08/22 04:04:20;;;;;;;1.58;0.90;;;23.20;64.70;;;;;;5084292;28;20433;-66
2022/08/22 04:07:09;;;;;;;2.85;0.93;;;23.20;64.70;;;;;;5090817;28;20544;-66
2022/08/22 04:09:49;;;;;;;2.55;1.00;;;23.20;64.70;;;;;;5092340;28;20107;-66
2022/08/22 04:12:38;;;;;;;2.65;0.90;;;23.20;64.70;;;;;;5090667;28;20047;-66
2022/08/22 04:15:14;;;;;;;2.03;1.08;;;23.20;64.70;;;;;;5091482;28;20055;-65
2022/08/22 04:17:55;;;;;;;2.95;1.10;;;23.20;64.70;;;;;;5091423;28;20044;-66
2022/08/22 04:20:29;;;;;;;4.25;1.10;;;23.20;64.70;;;;;;5074124;28;20510;-66
2022/08/22 04:23:21;;;;;;;1.95;0.88;;;23.20;64.80;;;;;;5090808;28;20036;-66
2022/08/22 04:25:55;;;;;;;2.00;1.08;;;23.20;64.80;;;;;;5060667;28;20056;-66
2022/08/22 04:28:42;;;;;;;1.85;0.90;;;23.20;64.80;;;;;;5074043;28;20055;-66
2022/08/22 04:31:10;;;;;;;2.60;1.10;;;23.20;64.80;;;;;;5092410;28;20079;-66
2022/08/22 04:34:06;;;;;;;1.63;0.95;;;23.20;64.90;;;;;;5090258;28;20811;-66
2022/08/22 04:36:44;;;;;;;2.22;0.95;;;23.20;64.90;;;;;;5092457;28;20079;-66
2022/08/22 04:39:25;;;;;;;2.13;0.90;;;23.20;64.90;;;;;;5092602;28;20040;-66
2022/08/22 04:41:58;;;;;;;2.63;0.90;;;23.20;64.90;;;;;;5090294;28;20055;-66
2022/08/22 04:44:42;;;;;;;2.78;1.05;;;23.20;64.90;;;;;;5073702;28;20083;-66
2022/08/22 04:47:29;;;;;;;2.25;1.05;;;23.20;64.90;;;;;;5090650;28;20056;-66
2022/08/22 04:50:24;;;;;;;2.55;0.95;;;23.20;64.90;;;;;;5059047;28;20055;-65
2022/08/22 04:53:27;;;;;;;2.55;1.00;;;23.20;64.90;;;;;;5089816;28;20105;-66
2022/08/22 04:56:05;;;;;;;2.42;1.05;;;23.20;64.90;;;;;;5073610;28;20059;-65
2022/08/22 04:58:49;;;;;;;2.42;1.23;;;23.10;64.80;;;;;;5074970;28;20040;-66
2022/08/22 05:01:24;;;;;;;2.45;0.90;;;23.10;64.90;;;;;;5091326;28;20122;-66
2022/08/22 05:03:50;;;;;;;1.95;0.90;;;23.20;65.00;;;;;;5092132;28;20128;-65
2022/08/22 05:06:17;;;;;;;2.95;0.90;;;23.10;64.90;;;;;;5092034;28;20495;-66
2022/08/22 05:08:43;;;;;;;1.63;0.93;;;23.10;64.90;;;;;;5073317;28;20085;-66
2022/08/22 05:11:08;;;;;;;1.27;0.73;;;23.10;64.90;;;;;;5091062;28;20052;-66
2022/08/22 05:13:42;;;;;;;3.85;0.95;;;23.10;64.90;;;;;;5090465;28;20048;-66
2022/08/22 05:16:17;;;;;;;2.28;1.17;;;23.20;64.90;;;;;;5090134;28;20078;-65
2022/08/22 05:18:48;;;;;;;2.42;1.20;;;23.10;64.90;;;;;;5090670;28;20040;-65
2022/08/22 05:21:13;;;;;;;3.08;1.20;;;23.10;64.90;;;;;;5091683;28;20115;-66
2022/08/22 05:23:47;;;;;;;1.75;0.80;;;23.10;64.90;;;;;;5073042;28;20499;-65
2022/08/22 05:26:12;;;;;;;1.45;0.90;;;23.10;64.90;;;;;;5074723;28;20425;-65
2022/08/22 05:28:41;;;;;;;1.90;0.93;;;23.20;65.00;;;;;;5073643;28;20131;-66
2022/08/22 05:31:09;;;;;;;2.75;1.00;;;23.10;64.90;;;;;;5089675;28;20061;-65
2022/08/22 05:33:39;;;;;;;2.42;1.20;;;23.10;65.50;;;;;;5074852;28;20048;-65
2022/08/22 05:36:15;;;;;;;3.72;0.98;;;23.20;64.90;;;;;;5077804;28;20075;-65
2022/08/22 05:38:44;;;;;;;1.98;1.00;;;23.20;65.00;;;;;;5076861;28;20094;-66
2022/08/22 05:41:15;;;;;;;2.22;0.90;;;23.20;65.00;;;;;;5094795;28;20044;-65
2022/08/22 05:43:42;;;;;;;2.42;0.98;;;23.20;65.10;;;;;;5093103;28;20695;-65
2022/08/22 05:46:16;;;;;;;5.72;1.30;;;23.20;65.10;;;;;;5094417;28;20036;-65
2022/08/22 05:48:42;;;;;;;3.80;1.30;;;23.20;65.00;;;;;;5095850;28;20044;-65
2022/08/22 05:51:22;;;;;;;3.50;1.38;;;23.20;65.10;;;;;;5093497;28;20526;-65
2022/08/22 05:53:49;;;;;;;2.47;1.00;;;23.20;65.10;;;;;;5094195;28;20040;-65
2022/08/22 05:56:38;;;;;;;2.47;1.10;;;23.20;65.20;;;;;;5094239;28;20052;-65
2022/08/22 05:59:25;;;;;;;2.03;0.98;;;23.20;65.20;;;;;;5093424;28;20040;-65
2022/08/22 06:02:06;;;;;;;2.30;1.20;;;23.20;65.20;;;;;;5077152;28;20052;-65
2022/08/22 06:04:48;;;;;;;2.85;1.00;;;23.20;65.20;;;;;;5094668;28;20044;-62
2022/08/22 06:07:44;;;;;;;3.60;1.20;;;23.20;65.90;;;;;;5091421;28;20078;-65
2022/08/22 06:10:15;;;;;;;4.63;1.35;;;23.20;65.30;;;;;;5094038;28;20036;-67
2022/08/22 06:12:53;;;;;;;9.60;1.23;;;23.20;65.30;;;;;;5094373;28;20051;-66
2022/08/22 06:15:22;;;;;;;5.28;1.13;;;23.20;65.20;;;;;;5093057;28;20052;-65
2022/08/22 06:17:49;;;;;;;4.68;0.95;;;23.20;65.30;;;;;;5093643;28;20076;-66
2022/08/22 06:20:20;;;;;;;2.70;1.23;;;23.20;65.30;;;;;;5092565;28;20044;-66
2022/08/22 06:22:50;;;;;;;2.90;1.15;;;23.20;65.40;;;;;;5093848;28;20040;-66
2022/08/22 06:25:21;;;;;;;3.67;1.02;;;23.20;65.30;;;;;;5110165;27;20055;-66
2022/08/22 06:27:47;;;;;;;3.88;0.98;;;23.20;65.30;;;;;;5093072;28;20093;-66
2022/08/22 06:30:13;;;;;;;3.60;1.27;;;23.20;65.30;;;;;;5093677;28;20059;-66
2022/08/22 06:32:42;;;;;;;3.03;1.00;;;23.20;65.30;;;;;;5093811;28;20044;-65
2022/08/22 06:35:14;;;;;;;3.35;1.25;;;23.20;65.30;;;;;;5094611;28;20036;-69
2022/08/22 06:37:41;;;;;;;4.05;1.30;;;23.20;65.30;;;;;;5110834;27;20403;-66
2022/08/22 06:40:07;;;;;;;3.35;1.35;;;23.20;65.50;;;;;;5092688;28;20511;-66
2022/08/22 06:42:36;;;;;;;4.10;1.40;;;23.20;65.50;;;;;;5093357;28;20116;-66
2022/08/22 06:45:06;;;;;;;5.50;1.10;;;23.20;65.50;;;;;;5092643;28;20040;-66
2022/08/22 06:48:11;;;;;;;4.95;1.02;;;23.20;65.50;;;;;;5092249;28;20044;-66
2022/08/22 06:50:39;;;;;;;3.47;1.30;;;23.20;65.40;;;;;;5107518;28;20055;-65
2022/08/22 06:53:14;;;;;;;2.95;1.08;;;23.20;65.50;;;;;;5110462;28;20173;-66
2022/08/22 06:55:43;;;;;;;2.65;1.00;;;23.20;65.50;;;;;;5109671;27;20119;-66
2022/08/22 06:58:17;;;;;;;3.25;1.20;;;23.20;65.50;;;;;;5092881;28;20384;-65
2022/08/22 07:00:42;;;;;;;4.78;1.40;;;23.30;65.60;;;;;;5075170;28;20130;-65
2022/08/22 07:03:19;;;;;;;5.03;1.60;;;23.30;65.70;;;;;;5075631;28;20119;-66
2022/08/22 07:05:45;;;;;;;4.05;1.45;;;23.30;65.80;;;;;;5092720;28;20089;-67
2022/08/22 07:08:12;;;;;;;2.05;1.10;;;23.30;65.90;;;;;;5090607;28;20032;-67
2022/08/22 07:11:03;;;;;;;4.83;1.63;;;23.30;66.00;;;;;;5075477;28;20044;-66
2022/08/22 07:13:28;;;;;;;4.30;1.42;;;23.30;66.10;;;;;;5082790;28;20309;-65
2022/08/22 07:15:55;;;;;;;5.57;1.08;;;23.30;66.10;;;;;;5058378;28;20047;-66
2022/08/22 07:18:23;;;;;;;5.75;1.38;;;23.30;66.20;;;;;;5092429;28;20047;-66
2022/08/22 07:20:51;;;;;;;2.92;1.17;;;23.40;66.30;;;;;;5093647;28;20496;-65
2022/08/22 07:23:35;;;;;;;3.70;1.40;;;23.40;66.40;;;;;;5092845;28;20062;-66
2022/08/22 07:26:11;;;;;;;3.40;1.17;;;23.40;66.30;;;;;;5092505;28;20048;-66
2022/08/22 07:28:44;;;;;;;4.28;1.45;;;23.40;66.30;;;;;;5074100;28;20067;-65
2022/08/22 07:31:19;;;;;;;1.55;1.00;;;23.30;66.10;;;;;;5091008;28;20056;-63
2022/08/22 07:33:50;;;;;;;3.25;1.60;;;23.40;66.20;;;;;;5092382;28;20044;-64
2022/08/22 07:36:24;;;;;;;7.38;1.20;;;23.40;66.20;;;;;;5092154;28;20832;-66
2022/08/22 07:39:17;;;;;;;3.10;1.20;;;23.40;66.20;;;;;;5075492;28;20471;-65
2022/08/22 07:42:16;;;;;;;6.22;1.63;;;23.40;66.10;;;;;;5075512;28;20048;-66
2022/08/22 07:45:07;;;;;;;5.53;1.70;;;23.40;66.20;;;;;;5090922;28;20048;-65
2022/08/22 07:47:38;;;;;;;5.22;1.63;;;23.40;66.40;;;;;;5092902;28;20052;-66
2022/08/22 07:50:06;;;;;;;6.50;1.50;;;23.40;66.40;;;;;;5092522;28;20047;-65
2022/08/22 07:52:43;;;;;;;6.53;1.90;;;23.40;66.50;;;;;;5074966;28;20131;-65
2022/08/22 07:55:21;;;;;;;6.15;2.22;;;23.40;66.50;;;;;;5092005;28;20087;-65
2022/08/22 07:58:14;;;;;;;8.13;1.60;;;23.40;66.60;;;;;;5090132;28;20044;-65
2022/08/22 08:00:44;;;;;;;5.72;1.70;;;23.40;66.60;;;;;;5088073;28;20414;-66
2022/08/22 08:03:10;;;;;;;4.45;1.45;;;23.40;66.60;;;;;;5109064;27;20418;-66
2022/08/22 08:05:36;;;;;;;8.00;1.55;;;23.40;66.70;;;;;;5090705;28;20119;-65
2022/08/22 08:08:06;;;;;;;6.35;1.70;;;23.40;66.70;;;;;;5108776;28;20047;-66
2022/08/22 08:10:33;;;;;;;9.85;1.85;;;23.40;66.70;;;;;;5108331;28;20046;-66
2022/08/22 08:13:06;;;;;;;7.13;1.30;;;23.40;66.80;;;;;;5107218;28;20461;-65
2022/08/22 08:15:34;;;;;;;7.25;1.60;;;23.40;66.80;;;;;;5090236;28;20048;-64
2022/08/22 08:18:04;;;;;;;13.95;1.83;;;23.40;66.80;;;;;;5119290;27;20515;-64
2022/08/22 08:20:29;;;;;;;5.03;1.90;;;23.40;66.70;;;;;;5069982;28;20076;-67
2022/08/22 08:22:55;;;;;;;15.55;1.60;;;23.40;66.60;;;;;;5055623;28;20060;-67
2022/08/22 08:25:23;;;;;;;10.02;1.83;;;23.40;66.60;;;;;;5055406;28;20079;-62
2022/08/22 08:30:34;;;;;;;13.60;2.00;;;23.40;66.50;;;;;;5091092;28;20334;-62
2022/08/22 08:33:00;;;;;;;10.20;1.70;;;23.40;66.50;;;;;;5090692;28;20063;-62
2022/08/22 08:35:31;;;;;;;10.90;2.47;;;23.50;66.50;;;;;;5090667;28;20403;-61
2022/08/22 08:38:11;;;;;;;18.38;2.13;;;23.50;66.80;;;;;;5074629;28;20033;-63
2022/08/22 08:41:10;;;;;;;20.80;2.60;;;23.40;66.80;;;;;;5090903;28;20511;-62
2022/08/22 08:43:57;;;;;;;14.50;2.33;;;23.50;67.10;;;;;;5070748;28;20083;-73
2022/08/22 08:46:33;;;;;;;21.83;3.22;;;23.50;67.00;;;;;;5070096;28;20400;-66
2022/08/22 08:49:08;;;;;;;10.82;2.10;;;23.50;66.90;;;;;;5071356;28;20041;-65
2022/08/22 08:51:40;;;;;;;17.50;1.73;;;23.50;66.90;;;;;;5070662;28;20508;-66
2022/08/22 08:54:34;;;;;;;8.82;1.48;;;23.50;66.90;;;;;;5072059;28;20044;-65
2022/08/22 08:57:22;;;;;;;10.15;2.38;;;23.50;66.70;;;;;;5074241;28;20045;-67
2022/08/22 09:00:13;;;;;;;12.57;2.08;;;23.50;66.70;;;;;;5070972;28;20120;-67
2022/08/22 09:03:00;;;;;;;13.65;2.40;;;23.50;67.10;;;;;;5069934;28;20076;-63
2022/08/22 09:05:58;;;;;;;13.38;2.72;;;23.50;67.30;;;;;;5071733;28;20127;-66
2022/08/22 09:08:48;;;;;;;10.77;2.15;;;23.50;67.20;;;;;;5067853;28;20131;-66
2022/08/22 09:11:37;;;;;;;12.18;1.98;;;23.50;67.40;;;;;;5074472;28;20508;-66
2022/08/22 09:14:26;;;;;;;11.93;2.30;;;23.50;67.50;;;;;;5074862;28;20041;-66
2022/08/22 09:17:09;;;;;;;8.63;2.03;;;23.50;67.50;;;;;;5075010;28;20055;-66
2022/08/22 09:19:59;;;;;;;9.82;1.73;;;23.50;67.40;;;;;;5075496;28;20048;-66
2022/08/22 09:22:30;;;;;;;10.35;2.25;;;23.60;67.30;;;;;;5061010;28;20059;-66
2022/08/22 09:25:01;;;;;;;8.00;2.05;;;23.60;67.20;;;;;;5094660;28;20044;-66
2022/08/22 09:27:34;;;;;;;9.35;1.92;;;23.60;67.00;;;;;;5095478;28;20119;-66
2022/08/22 09:30:11;;;;;;;9.77;1.75;;;23.60;66.90;;;;;;5093728;28;20130;-66
2022/08/22 09:32:45;;;;;;;10.33;2.37;;;23.60;66.80;;;;;;5095835;28;20044;-66
2022/08/22 09:35:28;;;;;;;11.40;1.92;;;23.60;66.60;;;;;;5095870;28;20043;-65
2022/08/22 09:38:17;;;;;;;9.70;1.88;;;23.60;66.50;;;;;;5095539;28;20066;-64
2022/08/22 09:41:24;;;;;;;7.47;1.77;;;23.60;66.40;;;;;;5094884;28;20052;-66
2022/08/22 09:44:12;;;;;;;7.47;1.90;;;23.60;66.20;;;;;;5078599;28;20052;-65
2022/08/22 09:47:11;;;;;;;9.98;2.40;;;23.60;66.10;;;;;;5112133;27;20051;-65
2022/08/22 09:49:48;;;;;;;9.95;1.90;;;23.60;66.00;;;;;;5089641;28;20510;-66
2022/08/22 09:52:42;;;;;;;7.43;1.98;;;23.60;66.00;;;;;;5094226;28;20052;-66
2022/08/22 09:55:17;;;;;;;10.18;1.88;;;23.60;65.90;;;;;;5094433;28;20047;-66
2022/08/22 09:58:18;;;;;;;4.95;1.48;;;23.60;65.80;;;;;;5093459;28;20423;-66
2022/08/22 10:01:26;;;;;;;7.00;2.00;;;23.60;65.60;;;;;;5095371;28;20051;-65
2022/08/22 10:04:39;;;;;;;4.85;1.75;;;23.70;65.60;;;;;;5091286;28;20083;-65
2022/08/22 10:07:22;;;;;;;6.40;1.25;;;23.60;65.30;;;;;;5094415;28;20048;-65
2022/08/22 10:10:08;;;;;;;7.30;1.90;;;23.60;65.10;;;;;;5095349;28;20040;-65
2022/08/22 10:12:50;;;;;;;5.25;1.45;;;23.60;64.80;;;;;;5112249;27;20055;-65
2022/08/22 10:15:38;;;;;;;6.80;1.67;;;23.70;64.90;;;;;;5111359;27;20434;-65
2022/08/22 10:18:16;;;;;;;6.75;1.80;;;23.60;64.60;;;;;;5093751;28;20087;-65
2022/08/22 10:21:11;;;;;;;5.95;1.88;;;23.70;64.40;;;;;;5093029;28;20395;-66
2022/08/22 10:23:52;;;;;;;6.22;1.73;;;23.60;64.10;;;;;;5094108;28;20084;-67
2022/08/22 10:26:35;;;;;;;7.65;1.48;;;23.60;64.20;;;;;;5093079;28;20032;-62
2022/08/22 10:29:25;;;;;;;6.43;1.60;;;23.60;64.10;;;;;;5094088;28;20040;-72
2022/08/22 10:31:58;;;;;;;5.38;1.30;;;23.60;64.10;;;;;;5094194;28;20052;-67
2022/08/22 10:34:27;;;;;;;7.55;1.88;;;23.60;64.00;;;;;;5110660;28;20040;-67
2022/08/22 10:37:21;;;;;;;5.72;1.60;;;23.70;64.10;;;;;;5110955;27;20124;-68
2022/08/22 10:40:01;;;;;;;6.50;1.42;;;23.70;64.00;;;;;;5093029;28;20051;-68
2022/08/22 10:42:32;;;;;;;4.95;1.42;;;23.70;64.00;;;;;;5093455;28;20496;-68
2022/08/22 10:45:17;;;;;;;5.93;1.85;;;23.70;64.10;;;;;;5111521;27;20044;-68
2022/08/22 10:48:03;;;;;;;7.78;1.77;;;23.70;64.10;;;;;;5094150;28;20052;-68
2022/08/22 10:50:38;;;;;;;3.85;1.23;;;23.70;64.00;;;;;;5094383;28;20044;-67
2022/08/22 10:53:34;;;;;;;6.32;1.73;;;23.70;64.00;;;;;;5092478;28;20082;-68
2022/08/22 10:56:08;;;;;;;5.90;1.95;;;23.70;64.00;;;;;;5093447;28;20503;-68
2022/08/22 10:59:00;;;;;;;5.18;1.52;;;23.70;64.00;;;;;;5093108;28;20192;-68
2022/08/22 11:01:28;;;;;;;6.40;1.55;;;23.80;63.90;;;;;;5092067;28;20411;-69
2022/08/22 11:04:21;;;;;;;5.25;1.40;;;23.80;64.00;;;;;;5093525;28;20046;-69
2022/08/22 11:06:55;;;;;;;4.47;1.38;;;23.80;63.90;;;;;;5093546;28;20048;-69
2022/08/22 11:09:38;;;;;;;6.32;1.65;;;23.80;64.00;;;;;;5092879;28;20115;-69
2022/08/22 11:12:12;;;;;;;4.70;1.30;;;23.80;63.90;;;;;;5111147;27;20091;-69
2022/08/22 11:15:02;;;;;;;4.50;1.35;;;23.80;63.80;;;;;;5093078;28;20391;-69
2022/08/22 11:17:52;;;;;;;5.05;1.45;;;23.80;63.80;;;;;;5093836;28;20407;-69
2022/08/22 11:20:36;;;;;;;4.18;1.40;;;23.80;63.80;;;;;;5094040;28;20076;-69
2022/08/22 11:23:31;;;;;;;4.85;1.50;;;23.80;63.80;;;;;;5092579;28;20044;-69
2022/08/22 11:26:33;;;;;;;6.88;1.63;;;23.80;63.80;;;;;;5093269;28;20044;-68
2022/08/22 11:29:03;;;;;;;4.88;1.60;;;23.90;63.90;;;;;;5093243;28;20050;-69
2022/08/22 11:31:48;;;;;;;4.20;1.38;;;23.90;63.90;;;;;;5092021;28;20048;-69
2022/08/22 11:34:57;;;;;;;5.07;1.55;;;23.90;63.90;;;;;;5093308;28;20126;-69
2022/08/22 11:37:57;;;;;;;6.55;1.33;;;23.90;63.90;;;;;;5091860;28;20123;-71
2022/08/22 11:40:37;;;;;;;5.22;1.60;;;23.90;63.90;;;;;;5112083;27;20048;-64
2022/08/22 11:43:29;;;;;;;5.32;1.42;;;23.90;63.90;;;;;;5091709;28;20047;-65
2022/08/22 11:45:57;;;;;;;5.70;1.50;;;23.90;63.90;;;;;;5112364;27;20147;-64
2022/08/22 11:48:31;;;;;;;5.27;1.70;;;23.90;63.90;;;;;;5092344;28;20036;-65
2022/08/22 11:51:13;;;;;;;4.75;1.48;;;24.00;63.80;;;;;;5109736;27;20305;-64
2022/08/22 11:54:07;;;;;;;3.90;1.50;;;24.00;63.60;;;;;;5092391;28;20036;-65
2022/08/22 11:56:36;;;;;;;5.68;1.60;;;24.00;63.50;;;;;;5091195;28;20051;-71
2022/08/22 11:59:06;;;;;;;5.30;1.75;;;24.00;63.40;;;;;;5075639;28;20044;-71
2022/08/22 12:01:36;;;;;;;5.82;1.75;;;24.00;63.30;;;;;;5092418;28;20051;-73
2022/08/22 12:04:16;;;;;;;6.07;1.45;;;24.10;63.20;;;;;;5108898;28;20051;-73
2022/08/22 12:06:55;;;;;;;4.85;1.90;;;24.10;63.10;;;;;;5109611;28;20558;-73
2022/08/22 12:09:40;;;;;;;6.18;1.58;;;24.10;63.10;;;;;;5109897;27;20511;-74
2022/08/22 12:12:19;;;;;;;4.45;1.50;;;24.10;63.00;;;;;;5091341;28;20089;-74
2022/08/22 12:15:12;;;;;;;4.82;1.40;;;24.20;63.10;;;;;;5092219;28;20059;-74
2022/08/22 12:17:53;;;;;;;5.15;1.40;;;24.20;63.00;;;;;;5109240;27;20040;-60
2022/08/22 12:20:37;;;;;;;5.00;1.70;;;24.20;63.00;;;;;;5110313;27;20111;-67
2022/08/22 12:23:10;;;;;;;6.13;1.40;;;24.20;63.00;;;;;;5093314;28;20048;-70
2022/08/22 12:25:35;;;;;;;5.25;1.40;;;24.30;63.10;;;;;;5090858;28;20055;-65
2022/08/22 12:28:16;;;;;;;4.85;1.67;;;24.30;63.00;;;;;;5093095;28;20040;-65
2022/08/22 12:31:02;;;;;;;6.00;1.60;;;24.30;63.00;;;;;;5109465;28;20534;-64
2022/08/22 12:33:46;;;;;;;5.55;1.85;;;24.30;63.00;;;;;;5090803;28;20062;-64
2022/08/22 12:36:41;;;;;;;4.85;1.38;;;24.30;63.00;;;;;;5091799;28;20492;-66
2022/08/22 12:39:15;;;;;;;5.80;1.30;;;24.30;62.90;;;;;;5090790;28;20043;-65
2022/08/22 12:41:54;;;;;;;3.33;1.45;;;24.30;62.90;;;;;;5093118;28;20086;-65
2022/08/22 12:44:50;;;;;;;6.82;1.45;;;24.30;62.90;;;;;;5090846;28;20075;-65
2022/08/22 12:47:30;;;;;;;4.32;1.50;;;24.40;63.00;;;;;;5091723;28;20047;-65
2022/08/22 12:50:18;;;;;;;4.75;1.60;;;24.30;62.90;;;;;;5092634;28;20393;-65
2022/08/22 12:53:13;;;;;;;6.32;1.50;;;24.40;63.00;;;;;;5070651;28;20059;-65
2022/08/22 12:56:02;;;;;;;4.72;1.40;;;24.30;63.00;;;;;;5091631;28;20043;-65
2022/08/22 12:58:40;;;;;;;6.38;1.40;;;24.40;63.00;;;;;;5110244;28;20036;-65
2022/08/22 13:01:06;;;;;;;3.97;1.33;;;24.40;63.00;;;;;;5092012;28;20048;-65
2022/08/22 13:03:34;;;;;;;4.28;1.33;;;24.30;63.00;;;;;;5108418;28;20132;-63
2022/08/22 13:06:05;;;;;;;5.05;1.77;;;24.40;63.10;;;;;;5091433;28;20040;-63
2022/08/22 13:08:37;;;;;;;4.00;1.30;;;24.40;62.80;;;;;;5107298;28;20036;-63
2022/08/22 13:11:10;;;;;;;4.82;1.40;;;24.40;62.80;;;;;;5092726;28;20044;-71
2022/08/22 13:13:42;;;;;;;5.00;1.55;;;24.40;62.80;;;;;;5090654;28;20052;-71
2022/08/22 13:16:09;;;;;;;4.90;1.50;;;24.40;62.80;;;;;;5074230;28;20554;-71
2022/08/22 13:18:37;;;;;;;6.60;1.57;;;24.40;63.00;;;;;;5108268;28;20036;-77
2022/08/22 13:21:04;;;;;;;;;;;24.40;63.10;;;;;;5099514;28;20123;-77
2022/08/22 13:23:51;;;;;;;6.53;1.75;;;24.40;63.30;;;;;;5087512;28;19927;-77
2022/08/22 13:26:26;;;;;;;7.15;1.55;;;24.40;63.60;;;;;;5088553;28;20044;-77
2022/08/22 13:29:00;;;;;;;5.35;1.38;;;24.40;63.70;;;;;;5106297;28;20077;-63
2022/08/22 13:31:30;;;;;;;3.33;1.13;;;24.40;63.70;;;;;;5087983;28;20056;-63
2022/08/22 13:34:26;;;;;;;5.03;1.80;;;24.40;63.70;;;;;;5090283;28;20052;-64
2022/08/22 13:36:52;;;;;;;4.88;1.85;;;24.40;63.80;;;;;;5089776;28;20040;-64
2022/08/22 13:39:25;;;;;;;4.28;1.40;;;24.40;63.80;;;;;;5090245;28;20043;-64
2022/08/22 13:41:53;;;;;;;3.03;1.30;;;24.40;64.00;;;;;;5089513;28;20468;-64
2022/08/22 13:44:27;;;;;;;5.45;1.90;;;24.40;63.80;;;;;;5090500;28;20036;-74
2022/08/22 13:46:52;;;;;;;4.07;1.40;;;24.50;63.90;;;;;;5090626;28;20066;-74
2022/08/22 13:49:34;;;;;;;3.70;1.60;;;24.50;63.90;;;;;;5089443;28;20389;-71
2022/08/22 13:52:29;;;;;;;2.70;1.20;;;24.50;64.00;;;;;;5074141;28;20083;-73
2022/08/22 13:55:17;;;;;;;3.42;1.25;;;24.50;64.00;;;;;;5090637;28;20437;-73